createdAt,value
2018-03-22T00:01:58.135Z,37.57
2018-03-22T00:04:27.318Z,27.43
2018-03-22T00:06:56.510Z,24.37
2018-03-22T00:09:25.722Z,27.80
2018-03-22T00:11:54.848Z,26.53
2018-03-22T00:14:24.018Z,28.53
2018-03-22T00:16:53.150Z,27.30
2018-03-22T00:19:23.195Z,27.00
2018-03-22T00:21:52.355Z,26.07
2018-03-22T00:24:21.494Z,24.43
2018-03-22T00:26:50.671Z,23.63
2018-03-22T00:29:19.842Z,25.93
2018-03-22T00:31:48.997Z,24.17
2018-03-22T00:34:18.186Z,22.50
2018-03-22T00:36:47.303Z,24.70
2018-03-22T00:39:16.475Z,23.23
2018-03-22T00:41:45.730Z,24.63
2018-03-22T00:44:14.902Z,26.90
2018-03-22T00:46:44.045Z,26.10
2018-03-22T00:49:13.237Z,26.23
2018-03-22T00:51:42.480Z,26.63
2018-03-22T00:54:11.602Z,25.13
2018-03-22T00:56:40.763Z,26.77
2018-03-22T00:59:09.917Z,26.60
2018-03-22T01:01:39.095Z,24.77
2018-03-22T01:04:08.243Z,26.30
2018-03-22T01:06:37.392Z,25.70
2018-03-22T01:09:06.570Z,26.03
2018-03-22T01:11:35.697Z,26.53
2018-03-22T01:14:04.874Z,26.30
2018-03-22T01:16:34.009Z,25.00
2018-03-22T01:19:03.177Z,23.17
2018-03-22T01:21:32.335Z,24.80
2018-03-22T01:24:01.461Z,25.10
2018-03-22T01:26:30.640Z,23.87
2018-03-22T01:28:59.810Z,25.67
2018-03-22T01:31:28.958Z,24.10
2018-03-22T01:33:58.147Z,23.77
2018-03-22T01:36:27.355Z,25.20
2018-03-22T01:38:56.574Z,25.07
2018-03-22T01:41:25.851Z,24.80
2018-03-22T01:43:55.005Z,24.60
2018-03-22T01:46:24.673Z,24.00
2018-03-22T01:48:53.850Z,23.90
2018-03-22T01:51:22.970Z,24.97
2018-03-22T01:53:52.101Z,24.30
2018-03-22T01:56:21.258Z,26.10
2018-03-22T01:58:50.448Z,22.03
2018-03-22T02:01:19.598Z,25.40
2018-03-22T02:03:48.761Z,26.77
2018-03-22T02:06:17.922Z,27.97
2018-03-22T02:08:47.085Z,26.13
2018-03-22T02:11:16.241Z,26.80
2018-03-22T02:13:45.397Z,26.60
2018-03-22T02:16:14.558Z,25.33
2018-03-22T02:18:44.385Z,28.40
2018-03-22T02:21:13.525Z,26.20
2018-03-22T02:23:42.728Z,28.00
2018-03-22T02:26:11.920Z,26.80
2018-03-22T02:28:41.074Z,28.77
2018-03-22T02:31:10.274Z,30.17
2018-03-22T02:33:39.458Z,31.90
2018-03-22T02:36:08.631Z,31.30
2018-03-22T02:38:37.778Z,27.33
2018-03-22T02:41:06.979Z,25.97
2018-03-22T02:43:36.147Z,29.10
2018-03-22T02:46:05.294Z,28.20
2018-03-22T02:48:34.451Z,28.80
2018-03-22T02:51:03.696Z,29.47
2018-03-22T02:53:32.821Z,28.07
2018-03-22T02:56:01.974Z,28.20
2018-03-22T02:58:31.119Z,28.67
2018-03-22T03:01:00.259Z,29.30
2018-03-22T03:03:29.422Z,29.30
2018-03-22T03:05:58.543Z,30.07
2018-03-22T03:08:27.682Z,29.17
2018-03-22T03:10:56.933Z,30.90
2018-03-22T03:13:26.155Z,29.67
2018-03-22T03:15:55.310Z,29.10
2018-03-22T03:18:24.494Z,30.70
2018-03-22T03:20:53.671Z,32.00
2018-03-22T03:23:22.861Z,31.73
2018-03-22T03:25:52.085Z,30.13
2018-03-22T03:28:21.229Z,32.00
2018-03-22T03:30:50.352Z,31.10
2018-03-22T03:33:19.486Z,31.33
2018-03-22T03:35:48.686Z,31.70
2018-03-22T03:38:17.853Z,31.27
2018-03-22T03:40:47.011Z,31.20
2018-03-22T03:43:16.142Z,30.90
2018-03-22T03:45:45.361Z,31.27
2018-03-22T03:48:14.490Z,34.03
2018-03-22T03:50:43.615Z,32.40
2018-03-22T03:53:12.823Z,31.97
2018-03-22T03:55:41.984Z,34.40
2018-03-22T03:58:11.118Z,34.10
2018-03-22T04:00:40.278Z,36.10
2018-03-22T04:03:09.420Z,32.57
2018-03-22T04:05:38.565Z,32.67
2018-03-22T04:08:07.809Z,32.47
2018-03-22T04:10:36.979Z,31.50
2018-03-22T04:13:06.106Z,30.80
2018-03-22T04:15:35.300Z,30.80
2018-03-22T04:18:04.422Z,29.07
2018-03-22T04:20:33.591Z,30.60
2018-03-22T04:23:02.734Z,31.37
2018-03-22T04:25:31.890Z,33.50
2018-03-22T04:28:01.077Z,27.90
2018-03-22T04:30:30.238Z,30.90
2018-03-22T04:32:59.362Z,29.50
2018-03-22T04:35:28.524Z,31.63
2018-03-22T04:37:57.706Z,32.80
2018-03-22T04:40:26.849Z,29.87
2018-03-22T04:42:56.504Z,30.43
2018-03-22T04:45:25.674Z,31.43
2018-03-22T04:47:54.842Z,27.97
2018-03-22T04:50:24.011Z,28.20
2018-03-22T04:52:53.169Z,31.83
2018-03-22T04:55:22.318Z,31.73
2018-03-22T04:57:51.528Z,29.90
2018-03-22T05:00:20.674Z,29.90
2018-03-22T05:02:50.507Z,31.20
2018-03-22T05:05:19.721Z,29.10
2018-03-22T05:07:48.864Z,30.00
2018-03-22T05:10:18.036Z,28.80
2018-03-22T05:12:47.205Z,30.90
2018-03-22T05:15:16.366Z,31.33
2018-03-22T05:17:45.544Z,29.00
2018-03-22T05:20:14.708Z,32.30
2018-03-22T05:22:43.847Z,31.63
2018-03-22T05:25:13.027Z,30.50
2018-03-22T05:27:42.158Z,30.23
2018-03-22T05:30:11.282Z,29.67
2018-03-22T05:32:40.465Z,29.50
2018-03-22T05:35:09.647Z,29.03
2018-03-22T05:37:38.818Z,27.80
2018-03-22T05:40:08.018Z,27.17
2018-03-22T05:42:37.155Z,26.53
2018-03-22T05:45:06.539Z,28.93
2018-03-22T05:47:35.695Z,29.70
2018-03-22T05:50:04.822Z,28.83
2018-03-22T05:52:33.973Z,29.07
2018-03-22T05:55:04.034Z,28.07
2018-03-22T05:57:33.208Z,26.00
2018-03-22T06:00:02.367Z,28.43
2018-03-22T06:02:31.518Z,29.23
2018-03-22T06:05:00.670Z,29.93
2018-03-22T06:07:29.785Z,29.77
2018-03-22T06:09:58.905Z,31.20
2018-03-22T06:12:28.062Z,30.17
2018-03-22T06:14:57.302Z,29.80
2018-03-22T06:17:26.456Z,29.20
2018-03-22T06:19:55.585Z,31.27
2018-03-22T06:22:24.723Z,28.57
2018-03-22T06:24:53.898Z,29.43
2018-03-22T06:27:23.036Z,27.40
2018-03-22T06:29:52.179Z,28.40
2018-03-22T06:32:21.348Z,26.13
2018-03-22T06:34:50.509Z,27.17
2018-03-22T06:37:19.662Z,24.47
2018-03-22T06:39:48.791Z,25.13
2018-03-22T06:42:17.951Z,24.53
2018-03-22T06:44:47.103Z,23.07
2018-03-22T06:47:16.485Z,24.87
2018-03-22T06:49:45.631Z,22.13
2018-03-22T06:52:14.792Z,21.47
2018-03-22T06:54:43.978Z,20.80
2018-03-22T06:57:13.107Z,20.37
2018-03-22T06:59:42.226Z,20.50
2018-03-22T07:02:11.412Z,20.90
2018-03-22T07:04:40.539Z,19.60
2018-03-22T07:07:09.778Z,18.50
2018-03-22T07:09:39.002Z,19.70
2018-03-22T07:12:08.138Z,19.90
2018-03-22T07:14:37.280Z,19.70
2018-03-22T07:17:06.477Z,19.10
2018-03-22T07:19:35.595Z,16.37
2018-03-22T07:22:04.773Z,18.60
2018-03-22T07:24:34.438Z,18.53
2018-03-22T07:27:03.585Z,18.27
2018-03-22T07:29:32.830Z,18.93
2018-03-22T07:32:01.996Z,17.53
2018-03-22T07:34:31.142Z,19.33
2018-03-22T07:37:00.334Z,20.13
2018-03-22T07:39:29.462Z,19.10
2018-03-22T07:41:58.637Z,19.77
2018-03-22T07:44:33.469Z,20.87
2018-03-22T07:47:02.621Z,19.80
2018-03-22T07:49:31.983Z,20.13
2018-03-22T07:52:01.161Z,19.50
2018-03-22T07:54:30.313Z,20.60
2018-03-22T07:56:59.478Z,20.20
2018-03-22T07:59:28.642Z,19.20
2018-03-22T08:01:57.808Z,20.87
2018-03-22T08:04:26.949Z,20.30
2018-03-22T08:06:56.088Z,20.27
2018-03-22T08:09:25.331Z,20.03
2018-03-22T08:11:54.465Z,19.43
2018-03-22T08:14:23.824Z,18.43
2018-03-22T08:16:52.943Z,19.47
2018-03-22T08:19:22.120Z,18.27
2018-03-22T08:21:51.278Z,19.20
2018-03-22T08:24:20.448Z,19.60
2018-03-22T08:26:49.581Z,18.80
2018-03-22T08:29:18.725Z,17.80
2018-03-22T08:31:47.929Z,17.20
2018-03-22T08:34:17.077Z,17.43
2018-03-22T08:36:46.252Z,17.43
2018-03-22T08:39:15.409Z,16.70
2018-03-22T08:41:44.536Z,18.10
2018-03-22T08:44:13.698Z,17.40
2018-03-22T08:46:42.814Z,18.17
2018-03-22T08:49:11.985Z,17.13
2018-03-22T08:51:41.142Z,18.03
2018-03-22T08:54:10.294Z,17.10
2018-03-22T08:56:39.430Z,16.77
2018-03-22T08:59:08.586Z,16.53
2018-03-22T09:01:37.922Z,16.20
2018-03-22T09:04:07.068Z,18.13
2018-03-22T09:06:36.261Z,17.30
2018-03-22T09:09:05.426Z,16.60
2018-03-22T09:11:34.572Z,17.13
2018-03-22T09:14:03.759Z,16.87
2018-03-22T09:16:32.946Z,16.73
2018-03-22T09:19:02.107Z,17.43
2018-03-22T09:21:31.277Z,16.57
2018-03-22T09:24:00.446Z,16.50
2018-03-22T09:26:29.793Z,17.53
2018-03-22T09:28:58.918Z,17.60
2018-03-22T09:31:28.133Z,16.73
2018-03-22T09:33:57.270Z,16.77
2018-03-22T09:36:26.409Z,16.20
2018-03-22T09:38:55.562Z,17.17
2018-03-22T09:41:24.715Z,16.80
2018-03-22T09:43:53.857Z,15.33
2018-03-22T09:46:22.984Z,15.13
2018-03-22T09:48:52.185Z,16.70
2018-03-22T09:51:21.350Z,14.90
2018-03-22T09:53:50.470Z,14.90
2018-03-22T09:56:19.638Z,15.00
2018-03-22T09:58:48.787Z,15.43
2018-03-22T10:01:17.946Z,16.80
2018-03-22T10:03:47.107Z,17.37
2018-03-22T10:06:16.233Z,16.10
2018-03-22T10:08:45.958Z,15.83
2018-03-22T10:11:15.094Z,17.57
2018-03-22T10:13:44.314Z,16.80
2018-03-22T10:16:13.493Z,15.57
2018-03-22T10:18:42.715Z,13.50
2018-03-22T10:21:11.831Z,13.40
2018-03-22T10:23:40.989Z,15.47
2018-03-22T10:26:10.138Z,16.27
2018-03-22T10:28:39.876Z,16.47
2018-03-22T10:31:09.030Z,17.07
2018-03-22T10:33:38.193Z,17.00
2018-03-22T10:36:07.328Z,17.10
2018-03-22T10:38:36.453Z,15.23
2018-03-22T10:41:05.618Z,16.80
2018-03-22T10:43:34.758Z,13.87
2018-03-22T10:46:03.871Z,14.10
2018-03-22T10:48:33.043Z,13.37
2018-03-22T10:51:02.190Z,12.90
2018-03-22T10:53:31.338Z,13.83
2018-03-22T10:56:00.525Z,14.73
2018-03-22T10:58:29.654Z,13.90
2018-03-22T11:01:04.637Z,14.03
2018-03-22T11:03:39.621Z,14.03
2018-03-22T11:06:08.809Z,12.53
2018-03-22T11:08:37.946Z,13.03
2018-03-22T11:11:07.093Z,13.97
2018-03-22T11:13:36.270Z,13.30
2018-03-22T11:16:05.390Z,13.80
2018-03-22T11:18:34.529Z,13.57
2018-03-22T11:21:03.681Z,14.17
2018-03-22T11:23:32.818Z,14.43
2018-03-22T11:26:01.989Z,14.03
2018-03-22T11:28:31.163Z,14.80
2018-03-22T11:31:00.308Z,16.87
2018-03-22T11:33:29.455Z,14.07
2018-03-22T11:35:58.576Z,16.60
2018-03-22T11:38:27.756Z,16.50
2018-03-22T11:40:56.959Z,16.90
2018-03-22T11:43:26.117Z,17.13
2018-03-22T11:45:55.236Z,16.57
2018-03-22T11:48:24.424Z,17.63
2018-03-22T11:50:53.634Z,17.30
2018-03-22T11:53:22.737Z,17.03
2018-03-22T11:55:51.864Z,17.20
2018-03-22T11:58:21.011Z,17.10
2018-03-22T12:00:50.179Z,21.90
2018-03-22T12:03:19.303Z,20.10
2018-03-22T12:05:48.431Z,21.27
2018-03-22T12:08:17.578Z,27.20
2018-03-22T12:10:46.740Z,31.63
2018-03-22T12:13:15.895Z,26.07
2018-03-22T12:15:45.063Z,23.07
2018-03-22T12:18:14.208Z,22.13
2018-03-22T12:20:43.383Z,22.90
2018-03-22T12:23:12.528Z,22.57
2018-03-22T12:25:41.667Z,20.40
2018-03-22T12:28:10.933Z,22.00
2018-03-22T12:30:40.143Z,21.30
2018-03-22T12:33:09.747Z,22.07
2018-03-22T12:35:38.889Z,20.50
2018-03-22T12:38:08.060Z,21.30
2018-03-22T12:40:37.174Z,21.70
2018-03-22T12:43:06.354Z,20.33
2018-03-22T12:45:35.501Z,23.83
2018-03-22T12:48:04.634Z,25.50
2018-03-22T12:50:33.805Z,24.43
2018-03-22T12:53:02.937Z,45.63
2018-03-22T12:55:32.072Z,48.07
2018-03-22T12:58:01.246Z,30.30
2018-03-22T13:00:30.391Z,29.80
2018-03-22T13:02:59.526Z,29.90
2018-03-22T13:05:28.682Z,30.30
2018-03-22T13:07:57.882Z,29.93
2018-03-22T13:10:27.023Z,30.27
2018-03-22T13:12:56.158Z,29.10
2018-03-22T13:15:25.310Z,27.10
2018-03-22T13:17:54.511Z,25.77
2018-03-22T13:20:23.644Z,22.67
2018-03-22T13:22:52.794Z,24.10
2018-03-22T13:25:21.900Z,21.10
2018-03-22T13:27:51.016Z,22.70
2018-03-22T13:30:20.204Z,21.90
2018-03-22T13:32:49.339Z,20.93
2018-03-22T13:35:18.910Z,22.60
2018-03-22T13:37:48.060Z,23.77
2018-03-22T13:40:17.245Z,21.87
2018-03-22T13:42:46.452Z,21.03
2018-03-22T13:45:15.593Z,22.70
2018-03-22T13:47:44.711Z,23.60
2018-03-22T13:50:13.902Z,22.20
2018-03-22T13:52:43.048Z,25.10
2018-03-22T13:55:12.349Z,25.77
2018-03-22T13:57:41.609Z,30.03
2018-03-22T14:00:10.752Z,26.13
2018-03-22T14:02:39.946Z,24.00
2018-03-22T14:05:09.141Z,23.80
2018-03-22T14:07:38.279Z,23.23
2018-03-22T14:10:07.400Z,23.63
2018-03-22T14:12:36.611Z,24.83
2018-03-22T14:15:05.726Z,24.03
2018-03-22T14:17:34.861Z,27.77
2018-03-22T14:20:04.040Z,24.37
2018-03-22T14:22:33.217Z,27.27
2018-03-22T14:25:02.389Z,27.50
2018-03-22T14:27:31.545Z,25.70
2018-03-22T14:30:00.678Z,24.60
2018-03-22T14:32:29.815Z,25.17
2018-03-22T14:34:58.999Z,22.43
2018-03-22T14:37:28.142Z,23.13
2018-03-22T14:39:57.280Z,22.13
2018-03-22T14:42:26.459Z,20.37
2018-03-22T14:44:55.610Z,29.90
2018-03-22T14:47:24.756Z,21.50
2018-03-22T14:49:53.965Z,26.10
2018-03-22T14:52:23.108Z,23.67
2018-03-22T14:54:52.247Z,23.17
2018-03-22T14:57:21.406Z,29.67
2018-03-22T14:59:50.525Z,29.63
2018-03-22T15:02:19.698Z,32.60
2018-03-22T15:04:48.844Z,27.73
2018-03-22T15:07:17.995Z,26.60
2018-03-22T15:09:47.114Z,27.17
2018-03-22T15:12:16.249Z,26.30
2018-03-22T15:14:45.466Z,26.77
2018-03-22T15:17:14.610Z,26.33
2018-03-22T15:19:43.755Z,27.20
2018-03-22T15:22:12.926Z,28.50
2018-03-22T15:24:42.050Z,25.37
2018-03-22T15:27:11.231Z,26.23
2018-03-22T15:29:40.393Z,25.77
2018-03-22T15:32:09.541Z,24.90
2018-03-22T15:34:38.749Z,25.83
2018-03-22T15:37:07.936Z,26.07
2018-03-22T15:39:37.224Z,24.83
2018-03-22T15:42:06.368Z,23.57
2018-03-22T15:44:35.510Z,25.30
2018-03-22T15:47:04.698Z,23.90
2018-03-22T15:49:33.850Z,23.37
2018-03-22T15:52:03.018Z,25.00
2018-03-22T15:54:32.186Z,25.43
2018-03-22T15:57:01.298Z,23.83
2018-03-22T15:59:30.442Z,24.17
2018-03-22T16:01:59.606Z,25.00
2018-03-22T16:04:29.318Z,22.10
2018-03-22T16:06:58.468Z,21.53
2018-03-22T16:09:27.607Z,22.40
2018-03-22T16:11:56.747Z,22.07
2018-03-22T16:14:25.969Z,22.87
2018-03-22T16:16:55.081Z,23.47
2018-03-22T16:19:24.275Z,22.77
2018-03-22T16:21:53.370Z,22.47
2018-03-22T16:24:22.487Z,29.77
2018-03-22T16:26:51.632Z,23.87
2018-03-22T16:29:20.773Z,25.70
2018-03-22T16:31:49.909Z,26.90
2018-03-22T16:34:19.059Z,24.17
2018-03-22T16:36:48.264Z,24.87
2018-03-22T16:39:17.370Z,25.60
2018-03-22T16:41:46.518Z,25.60
2018-03-22T16:44:15.713Z,26.03
2018-03-22T16:46:44.824Z,25.10
2018-03-22T16:49:13.991Z,27.00
2018-03-22T16:51:43.141Z,31.10
2018-03-22T16:54:12.284Z,26.53
2018-03-22T16:56:41.463Z,28.67
2018-03-22T16:59:10.665Z,29.27
2018-03-22T17:01:40.397Z,30.70
2018-03-22T17:04:09.601Z,32.10
2018-03-22T17:06:38.725Z,34.43
2018-03-22T17:09:07.888Z,31.57
2018-03-22T17:11:37.049Z,33.77
2018-03-22T17:14:06.209Z,35.93
2018-03-22T17:16:35.353Z,34.87
2018-03-22T17:19:04.507Z,36.30
2018-03-22T17:21:33.629Z,38.00
2018-03-22T17:24:02.809Z,37.73
2018-03-22T17:26:31.926Z,39.03
2018-03-22T17:29:01.102Z,69.13
2018-03-22T17:31:30.235Z,38.37
2018-03-22T17:33:59.350Z,34.67
2018-03-22T17:36:28.558Z,36.30
2018-03-22T17:38:57.736Z,36.80
2018-03-22T17:41:26.896Z,35.70
2018-03-22T17:43:56.036Z,34.97
2018-03-22T17:46:25.217Z,37.20
2018-03-22T17:48:54.371Z,39.30
2018-03-22T17:51:23.515Z,41.40
2018-03-22T17:53:52.685Z,41.70
2018-03-22T17:56:21.793Z,40.27
2018-03-22T17:58:50.914Z,39.63
2018-03-22T18:01:20.091Z,42.73
2018-03-22T18:03:49.882Z,37.80
2018-03-22T18:06:19.085Z,38.77
2018-03-22T18:08:48.210Z,36.60
2018-03-22T18:11:17.355Z,37.10
2018-03-22T18:13:46.547Z,37.40
2018-03-22T18:16:15.692Z,39.03
2018-03-22T18:18:44.827Z,40.37
2018-03-22T18:21:13.971Z,40.90
2018-03-22T18:23:43.160Z,44.87
2018-03-22T18:26:12.294Z,40.70
2018-03-22T18:28:41.500Z,42.70
2018-03-22T18:31:10.620Z,47.87
2018-03-22T18:33:39.783Z,46.50
2018-03-22T18:36:08.955Z,45.97
2018-03-22T18:38:38.091Z,48.50
2018-03-22T18:41:07.239Z,47.57
2018-03-22T18:43:36.354Z,50.87
2018-03-22T18:46:05.510Z,52.77
2018-03-22T18:48:34.644Z,54.03
2018-03-22T18:51:03.781Z,53.90
2018-03-22T18:53:32.918Z,52.13
2018-03-22T18:56:02.061Z,56.37
2018-03-22T18:58:31.185Z,57.33
2018-03-22T19:01:00.354Z,58.27
2018-03-22T19:03:29.474Z,57.23
2018-03-22T19:05:58.605Z,57.80
2018-03-22T19:08:27.795Z,65.30
2018-03-22T19:10:56.980Z,69.53
2018-03-22T19:13:26.115Z,74.67
2018-03-22T19:15:55.289Z,65.70
2018-03-22T19:18:24.418Z,69.53
2018-03-22T19:20:53.539Z,73.97
2018-03-22T19:23:22.738Z,67.17
2018-03-22T19:25:51.883Z,71.63
2018-03-22T19:28:21.462Z,72.17
2018-03-22T19:30:50.638Z,70.97
2018-03-22T19:33:19.762Z,71.37
2018-03-22T19:35:48.922Z,84.70
2018-03-22T19:38:18.088Z,65.33
2018-03-22T19:40:47.199Z,70.20
2018-03-22T19:43:16.328Z,67.67
2018-03-22T19:45:45.462Z,75.13
2018-03-22T19:48:14.610Z,67.63
2018-03-22T19:50:43.725Z,63.33
2018-03-22T19:53:12.898Z,64.13
2018-03-22T19:55:42.027Z,64.83
2018-03-22T19:58:11.172Z,64.10
2018-03-22T20:00:40.325Z,70.13
2018-03-22T20:03:09.532Z,71.17
2018-03-22T20:05:38.675Z,77.80
2018-03-22T20:08:07.781Z,77.87
2018-03-22T20:10:36.948Z,80.37
2018-03-22T20:13:06.091Z,82.83
2018-03-22T20:15:35.218Z,78.67
2018-03-22T20:18:04.350Z,79.37
2018-03-22T20:20:33.473Z,77.00
2018-03-22T20:23:02.658Z,78.03
2018-03-22T20:25:31.816Z,86.33
2018-03-22T20:28:00.958Z,85.17
2018-03-22T20:30:30.123Z,83.40
2018-03-22T20:32:59.388Z,73.47
2018-03-22T20:35:28.508Z,75.77
2018-03-22T20:37:57.661Z,77.13
2018-03-22T20:40:26.888Z,79.77
2018-03-22T20:42:56.042Z,84.77
2018-03-22T20:45:25.160Z,81.13
2018-03-22T20:47:54.323Z,89.13
2018-03-22T20:50:23.454Z,79.20
2018-03-22T20:52:52.602Z,78.53
2018-03-22T20:55:21.762Z,79.93
2018-03-22T20:57:50.951Z,76.97
2018-03-22T21:00:20.908Z,71.87
2018-03-22T21:02:50.023Z,73.03
2018-03-22T21:05:19.201Z,74.60
2018-03-22T21:07:48.329Z,78.23
2018-03-22T21:10:17.470Z,78.77
2018-03-22T21:12:46.593Z,80.67
2018-03-22T21:15:15.722Z,83.47
2018-03-22T21:17:44.905Z,85.03
2018-03-22T21:20:14.032Z,82.50
2018-03-22T21:22:43.244Z,86.77
2018-03-22T21:25:12.365Z,89.43
2018-03-22T21:27:41.498Z,95.50
2018-03-22T21:30:10.706Z,87.53
2018-03-22T21:32:40.007Z,95.17
2018-03-22T21:35:09.156Z,85.73
2018-03-22T21:37:38.326Z,88.50
2018-03-22T21:40:07.481Z,86.90
2018-03-22T21:42:36.625Z,84.77
2018-03-22T21:45:05.799Z,84.73
2018-03-22T21:47:34.963Z,86.43
2018-03-22T21:50:04.107Z,84.83
2018-03-22T21:52:38.998Z,85.17
2018-03-22T21:55:08.176Z,81.03
2018-03-22T21:57:37.351Z,85.20
2018-03-22T22:00:06.508Z,85.60
2018-03-22T22:02:35.661Z,91.33
2018-03-22T22:05:04.780Z,95.73
2018-03-22T22:07:33.914Z,89.03
2018-03-22T22:10:03.174Z,89.47
2018-03-22T22:12:32.329Z,89.17
2018-03-22T22:15:01.459Z,88.33
2018-03-22T22:17:30.629Z,89.97
2018-03-22T22:19:59.756Z,93.27
2018-03-22T22:22:28.897Z,91.50
2018-03-22T22:24:58.150Z,89.13
2018-03-22T22:27:27.423Z,86.47
2018-03-22T22:29:56.573Z,86.07
2018-03-22T22:32:25.724Z,81.87
2018-03-22T22:34:54.915Z,77.23
2018-03-22T22:37:24.146Z,81.80
2018-03-22T22:39:53.294Z,78.13
2018-03-22T22:42:22.437Z,72.50
2018-03-22T22:44:51.578Z,72.77
2018-03-22T22:47:20.759Z,73.23
2018-03-22T22:49:49.898Z,76.90
2018-03-22T22:52:19.037Z,72.57
2018-03-22T22:54:48.212Z,77.20
2018-03-22T22:57:17.365Z,78.17
2018-03-22T22:59:46.495Z,77.30
2018-03-22T23:02:15.651Z,84.93
2018-03-22T23:04:44.837Z,80.77
2018-03-22T23:07:13.976Z,78.17
2018-03-22T23:09:43.101Z,80.30
2018-03-22T23:12:12.282Z,80.07
2018-03-22T23:14:41.411Z,78.27
2018-03-22T23:17:10.562Z,75.80
2018-03-22T23:19:39.696Z,71.57
2018-03-22T23:22:08.843Z,75.43
2018-03-22T23:24:37.972Z,69.37
2018-03-22T23:27:07.150Z,74.90
2018-03-22T23:29:36.285Z,74.97
2018-03-22T23:32:05.414Z,77.27
2018-03-22T23:34:34.645Z,79.63
2018-03-22T23:37:03.790Z,83.73
2018-03-22T23:39:33.342Z,81.10
2018-03-22T23:42:02.508Z,79.10
2018-03-22T23:44:31.658Z,75.60
2018-03-22T23:47:00.822Z,75.67
2018-03-22T23:49:29.969Z,76.33
2018-03-22T23:51:59.118Z,72.87
2018-03-22T23:54:28.264Z,70.97
2018-03-22T23:56:57.381Z,71.17
2018-03-22T23:59:26.653Z,71.33
